Time;durP1;ratioP1;P1;durP2;ratioP2;P2;SDS_P1;SDS_P2;PMS_P1;PMS_P2;Temp;Humidity;BMP_temperature;BMP_pressure;BME280_temperature;BME280_humidity;BME280_pressure;Samples;Min_cycle;Max_cycle;Signal;HPM_P1;HPM_P2
2023/06/11 00:00:20;;;;;;;12.45;5.78;;;;;;;;;;10548967;28;20040;-75
2023/06/11 00:05:24;;;;;;;11.10;5.85;;;;;;;;;;10553447;28;20067;-75
2023/06/11 00:10:28;;;;;;;14.48;6.43;;;;;;;;;;10549708;28;20043;-75
2023/06/11 00:15:31;;;;;;;14.82;6.95;;;;;;;;;;10549649;28;20040;-76
2023/06/11 00:20:41;;;;;;;13.32;5.95;;;;;;;;;;10546513;28;20131;-75
2023/06/11 00:25:45;;;;;;;15.98;6.72;;;;;;;;;;10541748;28;20092;-74
2023/06/11 00:30:52;;;;;;;14.90;6.90;;;;;;;;;;10550843;28;20109;-74
2023/06/11 00:35:55;;;;;;;11.65;5.53;;;;;;;;;;10552475;28;20071;-73
2023/06/11 00:40:59;;;;;;;13.93;6.50;;;;;;;;;;10544165;28;20047;-74
2023/06/11 00:46:02;;;;;;;12.18;5.70;;;;;;;;;;10551844;28;20089;-75
2023/06/11 00:51:05;;;;;;;14.23;6.55;;;;;;;;;;10549874;28;20044;-75
2023/06/11 00:56:11;;;;;;;12.82;6.40;;;;;;;;;;10551561;28;20518;-74
2023/06/11 01:01:17;;;;;;;14.02;6.30;;;;;;;;;;10550004;28;20584;-74
2023/06/11 01:06:21;;;;;;;13.73;6.03;;;;;;;;;;10545302;28;20048;-76
2023/06/11 01:11:25;;;;;;;14.32;6.45;;;;;;;;;;10548809;28;20044;-74
2023/06/11 01:16:34;;;;;;;12.95;6.32;;;;;;;;;;10548663;28;20320;-74
2023/06/11 01:21:40;;;;;;;17.83;6.55;;;;;;;;;;10544997;28;20127;-74
2023/06/11 01:26:50;;;;;;;11.90;5.88;;;;;;;;;;10546868;28;20044;-74
2023/06/11 01:31:55;;;;;;;9.70;5.15;;;;;;;;;;10542305;28;21869;-75
2023/06/11 01:36:58;;;;;;;14.45;6.43;;;;;;;;;;10547381;28;20086;-75
2023/06/11 01:42:01;;;;;;;12.02;6.00;;;;;;;;;;10542427;28;20116;-75
2023/06/11 01:47:05;;;;;;;14.57;5.97;;;;;;;;;;10547864;28;20469;-76
2023/06/11 01:52:09;;;;;;;13.52;6.53;;;;;;;;;;10550934;28;20043;-74
2023/06/11 01:57:13;;;;;;;13.27;6.60;;;;;;;;;;10550198;28;20071;-73
2023/06/11 02:02:17;;;;;;;12.50;6.03;;;;;;;;;;10545060;28;20047;-75
2023/06/11 02:07:20;;;;;;;14.25;7.15;;;;;;;;;;10550278;28;20059;-74
2023/06/11 02:12:23;;;;;;;17.75;8.02;;;;;;;;;;10547666;28;20099;-74
2023/06/11 02:17:28;;;;;;;13.73;6.47;;;;;;;;;;10544907;28;20033;-74
2023/06/11 02:22:30;;;;;;;13.75;6.97;;;;;;;;;;10550629;28;20044;-73
2023/06/11 02:27:33;;;;;;;12.88;6.25;;;;;;;;;;10551729;28;20060;-73
2023/06/11 02:32:39;;;;;;;13.02;6.38;;;;;;;;;;10559380;28;20594;-73
2023/06/11 02:37:42;;;;;;;13.25;6.57;;;;;;;;;;10549375;28;20158;-75
2023/06/11 02:42:45;;;;;;;15.33;6.80;;;;;;;;;;10552174;28;20056;-74
2023/06/11 02:47:50;;;;;;;14.05;6.35;;;;;;;;;;10553713;28;20039;-74
2023/06/11 02:52:53;;;;;;;13.20;6.60;;;;;;;;;;10549154;28;20032;-75
2023/06/11 02:57:56;;;;;;;13.00;6.30;;;;;;;;;;10554125;28;20048;-75
2023/06/11 03:03:00;;;;;;;15.65;6.43;;;;;;;;;;10559198;28;20052;-74
2023/06/11 03:08:03;;;;;;;11.63;6.05;;;;;;;;;;10558346;28;20051;-74
2023/06/11 03:13:06;;;;;;;14.37;6.07;;;;;;;;;;10552728;28;20079;-74
2023/06/11 03:18:10;;;;;;;13.97;6.97;;;;;;;;;;10555215;28;20151;-73
2023/06/11 03:23:13;;;;;;;16.92;6.95;;;;;;;;;;10553840;28;20141;-74
2023/06/11 03:28:16;;;;;;;13.05;6.15;;;;;;;;;;10564567;28;20508;-73
2023/06/11 03:33:21;;;;;;;13.90;7.30;;;;;;;;;;10546945;28;20039;-74
2023/06/11 03:38:24;;;;;;;14.88;6.65;;;;;;;;;;10545742;28;20044;-76
2023/06/11 03:43:27;;;;;;;13.30;6.60;;;;;;;;;;10551987;28;20064;-73
2023/06/11 03:48:31;;;;;;;15.90;6.72;;;;;;;;;;10551076;28;20060;-75
2023/06/11 03:53:33;;;;;;;15.52;6.82;;;;;;;;;;10551163;28;20123;-74
2023/06/11 03:58:36;;;;;;;12.17;5.67;;;;;;;;;;10554047;28;20032;-76
2023/06/11 04:03:41;;;;;;;13.40;6.45;;;;;;;;;;10553107;28;20401;-75
2023/06/11 04:08:44;;;;;;;15.57;6.93;;;;;;;;;;10555554;28;20144;-74
2023/06/11 04:13:49;;;;;;;13.20;6.80;;;;;;;;;;10552127;28;20047;-77
2023/06/11 04:18:54;;;;;;;12.05;6.68;;;;;;;;;;10547467;28;20036;-76
2023/06/11 04:23:57;;;;;;;12.73;7.07;;;;;;;;;;10548001;28;20056;-76
2023/06/11 04:29:01;;;;;;;13.65;6.70;;;;;;;;;;10553463;28;20040;-74
2023/06/11 04:34:06;;;;;;;15.85;7.25;;;;;;;;;;10554791;28;20040;-75
2023/06/11 04:39:09;;;;;;;13.77;6.13;;;;;;;;;;10550869;28;20135;-76
2023/06/11 04:44:13;;;;;;;12.80;6.78;;;;;;;;;;10549167;28;20359;-74
2023/06/11 04:49:20;;;;;;;13.97;7.03;;;;;;;;;;10546512;28;20077;-74
2023/06/11 04:54:23;;;;;;;14.10;7.07;;;;;;;;;;10549933;28;20306;-74
2023/06/11 04:59:26;;;;;;;13.50;6.75;;;;;;;;;;10548578;28;20051;-74
2023/06/11 05:04:31;;;;;;;13.17;6.47;;;;;;;;;;10552204;28;20298;-74
2023/06/11 05:09:34;;;;;;;12.80;6.95;;;;;;;;;;10544973;28;20056;-74
2023/06/11 05:14:37;;;;;;;12.30;6.45;;;;;;;;;;10551121;28;20100;-75
2023/06/11 05:19:41;;;;;;;12.85;6.25;;;;;;;;;;10548903;28;20040;-75
2023/06/11 05:24:47;;;;;;;12.95;6.30;;;;;;;;;;10548151;28;20039;-74
2023/06/11 05:29:50;;;;;;;10.05;5.80;;;;;;;;;;10550879;28;20063;-75
2023/06/11 05:34:54;;;;;;;12.95;6.65;;;;;;;;;;10546020;28;20060;-75
2023/06/11 05:39:57;;;;;;;12.35;6.85;;;;;;;;;;10547372;28;20032;-75
2023/06/11 05:45:00;;;;;;;14.40;6.35;;;;;;;;;;10550344;28;20127;-74
2023/06/11 05:50:04;;;;;;;11.45;5.78;;;;;;;;;;10546396;28;20157;-74
2023/06/11 05:55:07;;;;;;;10.05;6.22;;;;;;;;;;10549694;28;20048;-74
2023/06/11 06:00:12;;;;;;;12.13;5.88;;;;;;;;;;10547510;28;20474;-75
2023/06/11 06:05:16;;;;;;;9.80;5.55;;;;;;;;;;10557513;28;20372;-75
2023/06/11 06:10:19;;;;;;;10.73;5.57;;;;;;;;;;10561656;28;20059;-76
2023/06/11 06:15:22;;;;;;;11.90;5.78;;;;;;;;;;10554673;28;20046;-75
2023/06/11 06:20:27;;;;;;;12.00;5.75;;;;;;;;;;10558941;28;20043;-74
2023/06/11 06:25:31;;;;;;;8.75;4.60;;;;;;;;;;10560584;28;20047;-74
2023/06/11 06:30:34;;;;;;;11.13;5.55;;;;;;;;;;10561828;28;20036;-75
2023/06/11 06:35:39;;;;;;;10.77;5.50;;;;;;;;;;10556138;28;20218;-74
2023/06/11 06:40:42;;;;;;;11.35;6.07;;;;;;;;;;10556065;28;20040;-76
2023/06/11 06:45:44;;;;;;;8.40;4.55;;;;;;;;;;10550510;28;20056;-73
2023/06/11 06:50:49;;;;;;;7.90;5.10;;;;;;;;;;10556023;28;20036;-75
2023/06/11 06:55:52;;;;;;;9.02;5.35;;;;;;;;;;10558609;28;20587;-74
2023/06/11 07:00:55;;;;;;;9.38;4.45;;;;;;;;;;10561968;28;20067;-75
2023/06/11 07:05:59;;;;;;;8.77;5.53;;;;;;;;;;10558733;28;20048;-75
2023/06/11 07:11:02;;;;;;;9.05;4.88;;;;;;;;;;10553640;28;20048;-75
2023/06/11 07:16:05;;;;;;;9.70;5.38;;;;;;;;;;10565654;28;20054;-74
2023/06/11 07:21:10;;;;;;;5.43;3.35;;;;;;;;;;10556819;28;20056;-77
2023/06/11 07:26:15;;;;;;;8.88;5.03;;;;;;;;;;10559455;28;20048;-75
2023/06/11 07:31:18;;;;;;;7.55;4.45;;;;;;;;;;10559834;28;20109;-75
2023/06/11 07:36:22;;;;;;;8.30;4.18;;;;;;;;;;10556783;28;20036;-74
2023/06/11 07:41:25;;;;;;;8.65;5.05;;;;;;;;;;10552193;28;20095;-75
2023/06/11 07:46:27;;;;;;;8.18;5.18;;;;;;;;;;10553348;28;20090;-75
2023/06/11 07:51:32;;;;;;;7.88;3.78;;;;;;;;;;10555173;28;20043;-75
2023/06/11 07:56:34;;;;;;;8.82;4.70;;;;;;;;;;10554677;28;20108;-74
2023/06/11 08:01:37;;;;;;;8.35;4.40;;;;;;;;;;10552828;28;20067;-74
2023/06/11 08:06:43;;;;;;;5.88;4.38;;;;;;;;;;10550118;28;20098;-72
2023/06/11 08:11:46;;;;;;;7.65;5.15;;;;;;;;;;10546301;28;20040;-73
2023/06/11 08:16:49;;;;;;;5.80;4.35;;;;;;;;;;10546624;28;20048;-73
2023/06/11 08:21:54;;;;;;;6.45;5.05;;;;;;;;;;10553833;28;20036;-74
2023/06/11 08:26:57;;;;;;;6.07;4.10;;;;;;;;;;10554684;28;20140;-73
2023/06/11 08:32:00;;;;;;;6.47;5.50;;;;;;;;;;10551851;28;20036;-74
2023/06/11 08:37:04;;;;;;;6.22;4.00;;;;;;;;;;10550974;28;20036;-74
2023/06/11 08:42:08;;;;;;;5.40;4.03;;;;;;;;;;10552916;28;20048;-74
2023/06/11 08:47:12;;;;;;;5.63;4.60;;;;;;;;;;10551045;28;20043;-73
2023/06/11 08:52:21;;;;;;;5.78;4.38;;;;;;;;;;10529978;28;20032;-73
2023/06/11 08:57:25;;;;;;;5.47;4.22;;;;;;;;;;10550372;28;20058;-73
2023/06/11 09:02:28;;;;;;;4.95;4.32;;;;;;;;;;10547261;28;20155;-73
2023/06/11 09:07:35;;;;;;;4.72;4.10;;;;;;;;;;10552473;28;20043;-74
2023/06/11 09:12:44;;;;;;;7.38;4.45;;;;;;;;;;10552312;28;20055;-73
2023/06/11 09:17:50;;;;;;;5.70;3.92;;;;;;;;;;10552505;28;20100;-74
2023/06/11 09:22:54;;;;;;;5.72;3.58;;;;;;;;;;10548483;28;20051;-74
2023/06/11 09:28:05;;;;;;;5.75;3.88;;;;;;;;;;10549705;28;20036;-73
2023/06/11 09:33:17;;;;;;;4.97;3.88;;;;;;;;;;10544880;28;20040;-73
2023/06/11 09:38:22;;;;;;;3.65;3.25;;;;;;;;;;10549737;28;20071;-73
2023/06/11 09:43:31;;;;;;;6.22;3.80;;;;;;;;;;10548914;28;20596;-74
2023/06/11 09:48:34;;;;;;;5.13;3.90;;;;;;;;;;10541251;28;20044;-72
2023/06/11 09:53:39;;;;;;;4.28;3.88;;;;;;;;;;10551380;28;20131;-72
2023/06/11 09:58:42;;;;;;;4.30;3.58;;;;;;;;;;10550258;28;20294;-73
2023/06/11 10:03:46;;;;;;;4.32;3.92;;;;;;;;;;10555491;28;20071;-72
2023/06/11 10:08:52;;;;;;;5.07;4.10;;;;;;;;;;10548097;28;20051;-70
2023/06/11 10:13:59;;;;;;;5.25;3.97;;;;;;;;;;10542764;28;20469;-72
2023/06/11 10:19:06;;;;;;;5.15;3.70;;;;;;;;;;10549021;28;20097;-73
2023/06/11 10:24:20;;;;;;;4.32;3.88;;;;;;;;;;10547027;28;20076;-72
2023/06/11 10:29:26;;;;;;;5.65;3.28;;;;;;;;;;10551401;28;20298;-73
2023/06/11 10:34:41;;;;;;;4.18;3.45;;;;;;;;;;10545066;28;20116;-72
2023/06/11 10:39:51;;;;;;;3.35;3.00;;;;;;;;;;10552375;28;20043;-72
2023/06/11 10:44:57;;;;;;;3.05;2.83;;;;;;;;;;10553686;28;20067;-73
2023/06/11 10:50:07;;;;;;;4.03;3.17;;;;;;;;;;10557083;28;20392;-74
2023/06/11 10:55:13;;;;;;;3.47;3.17;;;;;;;;;;10558733;28;20044;-73
2023/06/11 11:00:15;;;;;;;3.42;3.13;;;;;;;;;;10563226;28;20040;-73
2023/06/11 11:05:18;;;;;;;6.03;3.35;;;;;;;;;;10561495;28;20417;-76
2023/06/11 11:10:27;;;;;;;3.83;3.35;;;;;;;;;;10550913;28;20051;-74
2023/06/11 11:15:34;;;;;;;7.47;3.83;;;;;;;;;;10553518;28;20048;-74
2023/06/11 11:20:37;;;;;;;5.05;4.00;;;;;;;;;;10554151;28;20044;-80
2023/06/11 11:25:42;;;;;;;12.15;6.15;;;;;;;;;;10556852;28;20036;-80
2023/06/11 11:30:45;;;;;;;27.98;10.43;;;;;;;;;;10551467;28;20072;-76
2023/06/11 11:35:48;;;;;;;8.60;4.28;;;;;;;;;;10551656;28;20047;-74
2023/06/11 11:41:07;;;;;;;6.68;3.38;;;;;;;;;;10555767;28;20575;-76
2023/06/11 11:46:17;;;;;;;4.47;3.08;;;;;;;;;;10548634;28;20310;-76
2023/06/11 11:51:22;;;;;;;5.88;3.20;;;;;;;;;;10557586;28;20058;-74
2023/06/11 11:56:32;;;;;;;5.45;3.60;;;;;;;;;;10558141;28;20055;-77
2023/06/11 12:01:49;;;;;;;3.97;3.45;;;;;;;;;;10556383;28;20116;-75
2023/06/11 12:07:01;;;;;;;4.53;3.50;;;;;;;;;;10554957;28;20062;-76
2023/06/11 12:12:07;;;;;;;3.90;3.50;;;;;;;;;;10549381;28;20472;-75
2023/06/11 12:17:10;;;;;;;5.22;3.67;;;;;;;;;;10551704;28;20048;-75
2023/06/11 12:22:14;;;;;;;5.53;3.60;;;;;;;;;;10544456;28;20040;-75
2023/06/11 12:27:18;;;;;;;5.47;3.97;;;;;;;;;;10551725;28;20059;-76
2023/06/11 12:32:21;;;;;;;5.80;3.33;;;;;;;;;;10555578;28;20043;-76
2023/06/11 12:37:28;;;;;;;4.47;3.42;;;;;;;;;;10555547;28;20071;-76
2023/06/11 12:42:33;;;;;;;4.60;3.10;;;;;;;;;;10550333;28;20043;-76
2023/06/11 12:47:37;;;;;;;4.68;3.50;;;;;;;;;;10550660;28;20051;-76
2023/06/11 12:52:41;;;;;;;4.88;3.42;;;;;;;;;;10548662;28;20040;-77
2023/06/11 12:57:55;;;;;;;4.93;3.40;;;;;;;;;;10545076;28;20394;-76
2023/06/11 13:02:58;;;;;;;5.38;3.30;;;;;;;;;;10549823;28;20099;-76
2023/06/11 13:08:01;;;;;;;4.97;3.13;;;;;;;;;;10549128;28;20060;-76
2023/06/11 13:13:05;;;;;;;2.95;2.65;;;;;;;;;;10544063;28;20090;-76
2023/06/11 13:18:08;;;;;;;5.00;2.85;;;;;;;;;;10549921;28;20071;-76
2023/06/11 13:23:21;;;;;;;4.53;3.15;;;;;;;;;;10549399;28;20127;-74
2023/06/11 13:28:26;;;;;;;5.07;2.80;;;;;;;;;;10551893;28;20043;-75
2023/06/11 13:33:30;;;;;;;3.42;2.92;;;;;;;;;;10548374;28;20052;-75
2023/06/11 13:38:32;;;;;;;4.25;2.95;;;;;;;;;;10550390;28;20513;-75
2023/06/11 13:43:36;;;;;;;5.80;3.03;;;;;;;;;;10549561;28;20040;-76
2023/06/11 13:48:39;;;;;;;5.80;2.88;;;;;;;;;;10547558;28;20453;-75
2023/06/11 13:53:42;;;;;;;4.55;2.90;;;;;;;;;;10549524;28;20123;-75
2023/06/11 13:58:46;;;;;;;3.50;2.80;;;;;;;;;;10549099;28;20400;-76
2023/06/11 14:03:49;;;;;;;5.13;2.50;;;;;;;;;;10546182;28;20063;-74
2023/06/11 14:08:51;;;;;;;3.30;2.80;;;;;;;;;;10544959;28;20059;-75
2023/06/11 14:13:57;;;;;;;3.83;2.72;;;;;;;;;;10543604;28;20580;-76
2023/06/11 14:19:00;;;;;;;2.85;1.80;;;;;;;;;;10544933;28;20036;-75
2023/06/11 14:24:03;;;;;;;3.35;2.67;;;;;;;;;;10553762;28;20062;-75
2023/06/11 14:29:09;;;;;;;5.07;3.00;;;;;;;;;;10557813;28;20044;-74
2023/06/11 14:34:14;;;;;;;4.03;2.72;;;;;;;;;;10554596;28;20040;-74
2023/06/11 14:39:17;;;;;;;4.18;2.47;;;;;;;;;;10558986;28;20048;-74
2023/06/11 14:44:21;;;;;;;4.80;2.70;;;;;;;;;;10556120;28;20123;-75
2023/06/11 14:49:24;;;;;;;5.30;2.88;;;;;;;;;;10556713;28;20040;-75
2023/06/11 14:54:26;;;;;;;4.10;2.83;;;;;;;;;;10538310;28;20039;-76
2023/06/11 14:59:30;;;;;;;4.60;2.88;;;;;;;;;;10554276;28;20059;-75
2023/06/11 15:04:33;;;;;;;4.75;2.97;;;;;;;;;;10545897;28;20087;-74
2023/06/11 15:09:36;;;;;;;3.88;2.80;;;;;;;;;;10552449;28;20063;-75
2023/06/11 15:14:41;;;;;;;4.75;2.97;;;;;;;;;;10553618;28;20063;-74
2023/06/11 15:19:52;;;;;;;4.38;2.90;;;;;;;;;;10557051;28;20430;-74
2023/06/11 15:24:55;;;;;;;3.53;2.47;;;;;;;;;;10559568;28;20201;-75
2023/06/11 15:30:00;;;;;;;6.35;3.00;;;;;;;;;;10555911;28;20072;-74
2023/06/11 15:35:03;;;;;;;4.75;3.08;;;;;;;;;;10550360;28;20434;-74
2023/06/11 15:40:06;;;;;;;3.92;2.90;;;;;;;;;;10543859;28;20037;-75
2023/06/11 15:45:12;;;;;;;5.40;3.05;;;;;;;;;;10548065;28;20047;-75
2023/06/11 15:50:23;;;;;;;4.72;3.05;;;;;;;;;;10546749;28;20036;-76
2023/06/11 15:55:26;;;;;;;3.45;2.58;;;;;;;;;;10548474;28;20072;-75
2023/06/11 16:00:31;;;;;;;7.30;2.92;;;;;;;;;;10561995;27;20059;-75
2023/06/11 16:05:33;;;;;;;3.67;2.83;;;;;;;;;;10552466;28;20060;-76
2023/06/11 16:10:36;;;;;;;4.95;2.60;;;;;;;;;;10550140;28;20032;-76
2023/06/11 16:15:40;;;;;;;5.90;2.95;;;;;;;;;;10549750;28;20079;-75
2023/06/11 16:20:44;;;;;;;4.68;2.90;;;;;;;;;;10544851;28;20036;-76
2023/06/11 16:25:52;;;;;;;3.17;2.55;;;;;;;;;;10549286;28;20059;-75
2023/06/11 16:30:56;;;;;;;5.40;2.75;;;;;;;;;;10534483;28;20040;-74
2023/06/11 16:36:00;;;;;;;5.30;2.72;;;;;;;;;;10552708;28;20063;-75
2023/06/11 16:41:03;;;;;;;4.10;3.00;;;;;;;;;;10544915;28;20050;-77
2023/06/11 16:46:08;;;;;;;4.72;2.80;;;;;;;;;;10547189;28;20052;-76
2023/06/11 16:51:10;;;;;;;5.90;3.00;;;;;;;;;;10548707;28;20052;-77
2023/06/11 16:56:13;;;;;;;9.05;3.05;;;;;;;;;;10553694;28;20054;-75
2023/06/11 17:01:16;;;;;;;;;;;;;;;;;;10551154;28;20470;-75
2023/06/11 17:06:20;;;;;;;6.53;3.30;;;;;;;;;;10548307;28;19938;-75
2023/06/11 17:11:22;;;;;;;6.30;3.13;;;;;;;;;;10553169;28;20442;-75
2023/06/11 17:16:25;;;;;;;;;;;;;;;;;;10545040;28;20123;-74
2023/06/11 17:21:29;;;;;;;4.97;3.20;;;;;;;;;;10545185;28;19928;-75
2023/06/11 17:26:35;;;;;;;4.32;2.88;;;;;;;;;;10549153;28;20047;-75
2023/06/11 17:31:39;;;;;;;4.45;2.88;;;;;;;;;;10553305;28;20044;-75
2023/06/11 17:36:44;;;;;;;4.82;3.17;;;;;;;;;;10553558;28;20044;-75
2023/06/11 17:41:47;;;;;;;4.35;2.97;;;;;;;;;;10545327;28;20040;-75
2023/06/11 17:46:50;;;;;;;5.03;2.92;;;;;;;;;;10543526;28;20044;-75
2023/06/11 17:51:55;;;;;;;4.47;3.13;;;;;;;;;;10544617;28;20048;-76
2023/06/11 17:56:58;;;;;;;5.80;3.28;;;;;;;;;;10547498;28;20078;-77
2023/06/11 18:02:01;;;;;;;6.50;3.03;;;;;;;;;;10556364;28;20068;-75
2023/06/11 18:07:04;;;;;;;;;;;;;;;;;;10557057;28;20321;-75
2023/06/11 18:12:09;;;;;;;6.85;3.47;;;;;;;;;;10558488;28;19987;-76
2023/06/11 18:17:14;;;;;;;5.03;3.17;;;;;;;;;;10543195;28;20115;-76
2023/06/11 18:22:24;;;;;;;5.00;2.92;;;;;;;;;;10555709;28;20139;-77
2023/06/11 18:27:28;;;;;;;6.45;3.67;;;;;;;;;;10552584;28;20128;-78
2023/06/11 18:32:31;;;;;;;4.78;3.25;;;;;;;;;;10557299;28;20119;-76
2023/06/11 18:37:34;;;;;;;5.28;3.28;;;;;;;;;;10559748;28;20040;-77
2023/06/11 18:42:40;;;;;;;5.47;3.28;;;;;;;;;;10557086;28;20042;-76
2023/06/11 18:47:43;;;;;;;5.55;3.08;;;;;;;;;;10556758;28;20542;-75
2023/06/11 18:52:46;;;;;;;9.43;3.45;;;;;;;;;;10556056;28;20109;-76
2023/06/11 18:57:50;;;;;;;5.03;3.20;;;;;;;;;;10560254;28;20058;-75
2023/06/11 19:02:53;;;;;;;7.03;3.75;;;;;;;;;;10556089;28;20093;-75
2023/06/11 19:07:55;;;;;;;5.90;3.35;;;;;;;;;;10558805;28;20072;-77
2023/06/11 19:13:01;;;;;;;5.75;3.15;;;;;;;;;;10558414;28;20091;-75
2023/06/11 19:18:09;;;;;;;6.70;3.50;;;;;;;;;;10533312;28;20036;-76
2023/06/11 19:23:14;;;;;;;8.18;3.63;;;;;;;;;;10555455;28;20040;-76
2023/06/11 19:28:18;;;;;;;6.78;3.53;;;;;;;;;;10557925;28;20040;-76
2023/06/11 19:33:20;;;;;;;8.40;3.50;;;;;;;;;;10560486;28;20032;-78
2023/06/11 19:38:23;;;;;;;7.90;3.40;;;;;;;;;;10558627;28;20048;-78
2023/06/11 19:43:28;;;;;;;6.20;3.78;;;;;;;;;;10550405;28;20334;-77
2023/06/11 19:48:31;;;;;;;5.70;3.30;;;;;;;;;;10551554;28;20051;-76
2023/06/11 19:53:34;;;;;;;5.70;3.60;;;;;;;;;;10552829;28;21050;-76
2023/06/11 19:58:38;;;;;;;6.53;3.38;;;;;;;;;;10549528;28;20040;-75
2023/06/11 20:03:41;;;;;;;5.78;3.42;;;;;;;;;;10555450;28;20036;-77
2023/06/11 20:08:44;;;;;;;6.47;3.80;;;;;;;;;;10551316;28;20533;-76
2023/06/11 20:13:51;;;;;;;9.63;4.28;;;;;;;;;;10554610;28;20050;-77
2023/06/11 20:18:54;;;;;;;6.53;3.40;;;;;;;;;;10543039;28;20044;-77
2023/06/11 20:23:57;;;;;;;6.32;3.30;;;;;;;;;;10542284;28;20046;-76
2023/06/11 20:29:01;;;;;;;9.05;3.70;;;;;;;;;;10551650;28;20032;-76
2023/06/11 20:34:04;;;;;;;5.85;3.28;;;;;;;;;;10555790;28;20036;-78
2023/06/11 20:39:07;;;;;;;4.57;3.33;;;;;;;;;;10551294;28;20484;-76
2023/06/11 20:44:11;;;;;;;7.53;3.90;;;;;;;;;;10549904;28;20036;-76
2023/06/11 20:49:13;;;;;;;7.35;3.65;;;;;;;;;;10550687;28;20104;-79
2023/06/11 20:54:16;;;;;;;9.10;4.30;;;;;;;;;;10536601;28;20036;-78
2023/06/11 20:59:20;;;;;;;5.37;3.20;;;;;;;;;;10561245;28;20054;-78
2023/06/11 21:04:22;;;;;;;6.53;3.65;;;;;;;;;;10555173;28;20075;-76
2023/06/11 21:09:25;;;;;;;6.20;3.77;;;;;;;;;;10552970;28;20056;-75
2023/06/11 21:14:29;;;;;;;6.65;2.90;;;;;;;;;;10550582;28;20064;-76
2023/06/11 21:19:39;;;;;;;6.05;3.50;;;;;;;;;;10551532;28;20052;-76
2023/06/11 21:24:43;;;;;;;4.80;3.08;;;;;;;;;;10551411;28;20194;-76
2023/06/11 21:29:48;;;;;;;10.00;3.92;;;;;;;;;;10551743;28;20032;-76
2023/06/11 21:34:51;;;;;;;6.57;3.30;;;;;;;;;;10547469;28;20036;-75
2023/06/11 21:39:54;;;;;;;;;;;;;;;;;;10547402;28;20036;-75
2023/06/11 21:44:58;;;;;;;6.60;3.22;;;;;;;;;;10547136;28;19934;-75
2023/06/11 21:50:01;;;;;;;7.25;3.88;;;;;;;;;;10547109;28;20072;-75
2023/06/11 21:55:04;;;;;;;5.80;3.43;;;;;;;;;;10548259;28;20143;-74
2023/06/11 22:00:11;;;;;;;5.07;3.30;;;;;;;;;;10543738;28;20089;-75
2023/06/11 22:05:20;;;;;;;7.38;3.63;;;;;;;;;;10546734;28;20071;-76
2023/06/11 22:10:23;;;;;;;5.75;3.50;;;;;;;;;;10548064;28;20074;-74
2023/06/11 22:15:26;;;;;;;6.83;3.70;;;;;;;;;;10532294;28;20046;-75
2023/06/11 22:20:31;;;;;;;6.00;3.50;;;;;;;;;;10547414;28;20060;-75
2023/06/11 22:25:34;;;;;;;6.72;3.97;;;;;;;;;;10546738;28;20055;-75
2023/06/11 22:30:38;;;;;;;5.72;3.58;;;;;;;;;;10548666;28;20384;-75
2023/06/11 22:35:58;;;;;;;7.95;3.65;;;;;;;;;;10545886;28;20044;-74
2023/06/11 22:41:01;;;;;;;7.45;3.78;;;;;;;;;;10546712;28;20127;-75
2023/06/11 22:46:05;;;;;;;8.45;3.88;;;;;;;;;;10558986;28;20039;-75
2023/06/11 22:51:12;;;;;;;5.85;3.25;;;;;;;;;;10563439;28;20319;-74
2023/06/11 22:56:15;;;;;;;5.78;3.65;;;;;;;;;;10559477;28;20500;-76
2023/06/11 23:01:20;;;;;;;7.80;3.80;;;;;;;;;;10557909;28;20044;-75
2023/06/11 23:06:24;;;;;;;6.47;4.07;;;;;;;;;;10552593;28;20306;-75
2023/06/11 23:11:27;;;;;;;6.60;3.83;;;;;;;;;;10557470;28;20546;-75
2023/06/11 23:16:32;;;;;;;6.50;3.60;;;;;;;;;;10556178;28;20047;-76
2023/06/11 23:21:37;;;;;;;7.07;4.03;;;;;;;;;;10555681;28;20032;-75
2023/06/11 23:26:43;;;;;;;5.75;3.40;;;;;;;;;;10557178;28;20472;-76
2023/06/11 23:31:48;;;;;;;8.98;4.35;;;;;;;;;;10553029;28;21357;-75
2023/06/11 23:36:52;;;;;;;7.55;3.88;;;;;;;;;;10548636;28;20071;-75
2023/06/11 23:41:55;;;;;;;5.88;3.70;;;;;;;;;;10555445;28;20488;-75
2023/06/11 23:47:00;;;;;;;7.18;3.67;;;;;;;;;;10553809;28;20443;-76
2023/06/11 23:52:04;;;;;;;5.97;3.53;;;;;;;;;;10555182;28;20067;-76
2023/06/11 23:57:08;;;;;;;7.55;3.70;;;;;;;;;;10554751;28;20503;-76
